Airport details for: LROP (Romania)

Metar

LROP 270100Z 06006KT CAVOK 08/04 Q1016 NOSIG

General details

ICAO: LROP
IATA: OTP
Name (city): Henri Coanda
Major:
Country: Romania
vACC: vACC Romania
Description:

LROP (Bucharest Otopeni “Henri Coanda” International Airport)

Scenery links:
FS9 scenery: Download
FSX/P3D scenery: Download
XP scenery: Download
Elevation: 314 ft.
Transition altitude: 4000 ft.
MSA: 11400 ft.
Latitude: 44.571111
Longitude: 26.085
LROP Charts
LROP Notams
LROP Online stations

Runways

Number Course Length Elevation Lat Lon ILS ILS freq ILS FAC GP
08L 79° 11483ft / 3500 m 313ft 44.576622 26.0841 110.9 79° 3.0°
08R 79° 11483ft / 3500 m 314ft 44.564661 26.076747 110.3 79° 2.7°
26L 259° 11483ft / 3500 m 303ft 44.56797 26.120428 109.1 259° 2.7°
26R 259° 11483ft / 3500 m 303ft 44.579925 26.127764 110.7 259° 3.0°